Time;durP1;ratioP1;P1;durP2;ratioP2;P2;SDS_P1;SDS_P2;PMS_P1;PMS_P2;Temp;Humidity;BMP_temperature;BMP_pressure;BME280_temperature;BME280_humidity;BME280_pressure;Samples;Min_cycle;Max_cycle;Signal;HPM_P1;HPM_P2
2021/06/03 00:01:43;;;;;;;0.93;0.90;;;;;;;;;;5069363;28;20086;-78
2021/06/03 00:04:10;;;;;;;0.90;0.90;;;;;;;;;;5053033;28;20409;-78
2021/06/03 00:06:37;;;;;;;1.25;0.90;;;;;;;;;;5068997;28;20373;-78
2021/06/03 00:09:04;;;;;;;1.10;1.00;;;;;;;;;;5069363;28;20044;-78
2021/06/03 00:11:31;;;;;;;0.90;0.90;;;;;;;;;;5089705;28;20052;-78
2021/06/03 00:13:57;;;;;;;0.90;0.90;;;;;;;;;;5068037;28;20046;-78
2021/06/03 00:16:24;;;;;;;0.82;0.82;;;;;;;;;;5069824;28;20048;-78
2021/06/03 00:18:51;;;;;;;0.90;0.90;;;;;;;;;;5067811;28;20442;-78
2021/06/03 00:21:18;;;;;;;0.98;0.98;;;;;;;;;;5068215;28;20067;-78
2021/06/03 00:23:45;;;;;;;0.90;0.90;;;;;;;;;;5085881;28;20529;-78
2021/06/03 00:26:11;;;;;;;1.02;0.90;;;;;;;;;;5066899;28;20482;-78
2021/06/03 00:28:39;;;;;;;1.00;1.00;;;;;;;;;;5052344;28;20037;-78
2021/06/03 00:31:05;;;;;;;0.90;0.90;;;;;;;;;;5062402;28;20497;-78
2021/06/03 00:33:32;;;;;;;0.93;0.93;;;;;;;;;;5057297;28;20045;-78
2021/06/03 00:35:59;;;;;;;1.00;1.00;;;;;;;;;;5054659;28;20032;-78
2021/06/03 00:38:26;;;;;;;3.22;1.10;;;;;;;;;;5082358;28;20062;-78
2021/06/03 00:40:52;;;;;;;1.75;1.65;;;;;;;;;;5070598;28;20040;-78
2021/06/03 00:43:19;;;;;;;1.33;0.90;;;;;;;;;;5071593;28;20036;-78
2021/06/03 00:45:46;;;;;;;3.05;1.52;;;;;;;;;;5054597;28;20433;-78
2021/06/03 00:48:13;;;;;;;0.90;0.90;;;;;;;;;;5052349;28;20045;-78
2021/06/03 00:50:43;;;;;;;1.42;1.00;;;;;;;;;;5066634;28;20044;-78
2021/06/03 00:53:11;;;;;;;0.90;0.90;;;;;;;;;;5072877;28;20044;-78
2021/06/03 00:55:39;;;;;;;0.90;0.90;;;;;;;;;;5070090;28;20049;-78
2021/06/03 00:58:06;;;;;;;0.90;0.90;;;;;;;;;;5070797;28;20056;-78
2021/06/03 01:00:34;;;;;;;0.95;0.93;;;;;;;;;;5068853;28;20059;-78
2021/06/03 01:03:01;;;;;;;1.15;1.08;;;;;;;;;;5095206;28;20036;-78
2021/06/03 01:05:30;;;;;;;0.95;0.95;;;;;;;;;;5086370;28;20048;-78
2021/06/03 01:07:57;;;;;;;1.00;1.00;;;;;;;;;;5070211;28;20041;-78
2021/06/03 01:10:28;;;;;;;1.00;1.00;;;;;;;;;;5089689;28;20051;-78
2021/06/03 01:13:11;;;;;;;1.00;1.00;;;;;;;;;;5089145;28;20041;-78
2021/06/03 01:15:40;;;;;;;1.00;1.00;;;;;;;;;;5071412;28;20134;-78
2021/06/03 01:18:08;;;;;;;1.10;1.10;;;;;;;;;;5093386;28;20061;-78
2021/06/03 01:20:34;;;;;;;1.05;1.05;;;;;;;;;;5067728;28;20043;-78
2021/06/03 01:23:23;;;;;;;1.77;1.65;;;;;;;;;;5070917;28;20028;-78
2021/06/03 01:25:50;;;;;;;1.08;1.08;;;;;;;;;;5071178;28;20474;-78
2021/06/03 01:28:18;;;;;;;1.10;1.10;;;;;;;;;;5084751;28;20048;-78
2021/06/03 01:30:46;;;;;;;1.15;1.15;;;;;;;;;;5071492;28;20051;-78
2021/06/03 01:33:14;;;;;;;1.00;1.00;;;;;;;;;;5055500;28;20044;-78
2021/06/03 01:35:44;;;;;;;1.42;1.33;;;;;;;;;;5070572;28;20060;-78
2021/06/03 01:38:13;;;;;;;1.20;1.20;;;;;;;;;;5071927;28;20052;-78
2021/06/03 01:40:42;;;;;;;1.58;1.48;;;;;;;;;;5066562;28;20081;-78
2021/06/03 01:43:11;;;;;;;1.10;1.10;;;;;;;;;;5068263;28;20029;-78
2021/06/03 01:45:38;;;;;;;1.10;1.10;;;;;;;;;;5071930;28;20046;-78
2021/06/03 01:48:05;;;;;;;1.15;1.15;;;;;;;;;;5071049;28;20525;-78
2021/06/03 01:50:33;;;;;;;1.35;1.35;;;;;;;;;;5103009;28;20044;-78
2021/06/03 01:53:00;;;;;;;1.77;1.10;;;;;;;;;;5072024;28;20386;-78
2021/06/03 01:55:27;;;;;;;1.20;1.20;;;;;;;;;;5071391;28;20044;-78
2021/06/03 01:57:56;;;;;;;1.42;1.42;;;;;;;;;;5071738;28;20397;-78
2021/06/03 02:00:24;;;;;;;1.20;1.20;;;;;;;;;;5073759;28;20037;-77
2021/06/03 02:02:51;;;;;;;1.98;1.10;;;;;;;;;;5070002;28;20473;-77
2021/06/03 02:05:18;;;;;;;1.35;1.35;;;;;;;;;;5070219;28;20048;-77
2021/06/03 02:07:45;;;;;;;1.10;1.10;;;;;;;;;;5071677;28;20044;-77
2021/06/03 02:10:13;;;;;;;1.20;1.20;;;;;;;;;;5099936;28;20041;-77
2021/06/03 02:13:04;;;;;;;2.60;2.28;;;;;;;;;;5054535;28;20447;-77
2021/06/03 02:15:33;;;;;;;1.25;1.13;;;;;;;;;;5071830;28;20496;-77
2021/06/03 02:18:01;;;;;;;2.63;1.10;;;;;;;;;;5068095;28;20055;-77
2021/06/03 02:20:34;;;;;;;1.00;1.00;;;;;;;;;;5069381;28;20047;-77
2021/06/03 02:23:01;;;;;;;2.67;1.20;;;;;;;;;;5069040;28;20040;-77
2021/06/03 02:25:28;;;;;;;1.20;1.20;;;;;;;;;;5069768;28;20075;-77
2021/06/03 02:27:55;;;;;;;1.20;1.20;;;;;;;;;;5053739;28;20408;-77
2021/06/03 02:30:23;;;;;;;1.70;1.50;;;;;;;;;;5100904;28;20991;-77
2021/06/03 02:32:51;;;;;;;1.30;1.30;;;;;;;;;;5069695;28;20500;-77
2021/06/03 02:35:18;;;;;;;1.25;1.20;;;;;;;;;;5072549;28;20555;-77
2021/06/03 02:37:46;;;;;;;2.80;1.10;;;;;;;;;;5072115;28;20041;-77
2021/06/03 02:40:16;;;;;;;1.10;1.10;;;;;;;;;;5070430;28;20032;-77
2021/06/03 02:42:43;;;;;;;1.40;1.40;;;;;;;;;;5070187;28;20086;-77
2021/06/03 02:45:12;;;;;;;3.08;1.20;;;;;;;;;;5063891;28;20044;-77
2021/06/03 02:47:39;;;;;;;1.10;1.10;;;;;;;;;;5069004;28;20098;-77
2021/06/03 02:50:10;;;;;;;1.40;1.40;;;;;;;;;;5054789;28;20052;-77
2021/06/03 02:52:38;;;;;;;1.73;1.73;;;;;;;;;;5070644;28;20055;-77
2021/06/03 02:55:07;;;;;;;2.30;1.40;;;;;;;;;;5071269;28;20048;-77
2021/06/03 02:57:34;;;;;;;1.10;1.10;;;;;;;;;;5070248;28;20070;-77
2021/06/03 03:00:00;;;;;;;1.08;1.08;;;;;;;;;;5068233;28;20390;-77
2021/06/03 03:02:27;;;;;;;1.45;1.35;;;;;;;;;;5104259;28;20044;-77
2021/06/03 03:04:54;;;;;;;1.27;1.27;;;;;;;;;;5069049;28;20101;-77
2021/06/03 03:07:21;;;;;;;1.90;1.45;;;;;;;;;;5069882;28;20048;-77
2021/06/03 03:09:47;;;;;;;1.10;1.10;;;;;;;;;;5069399;28;20043;-77
2021/06/03 03:12:14;;;;;;;1.50;1.17;;;;;;;;;;5100641;27;20099;-77
2021/06/03 03:14:41;;;;;;;2.00;1.20;;;;;;;;;;5049156;28;20632;-77
2021/06/03 03:17:07;;;;;;;1.13;1.13;;;;;;;;;;5098702;28;20052;-77
2021/06/03 03:19:35;;;;;;;3.42;1.50;;;;;;;;;;5070444;28;20045;-77
2021/06/03 03:22:02;;;;;;;1.33;1.23;;;;;;;;;;5048325;28;20467;-78
2021/06/03 03:24:29;;;;;;;1.40;1.30;;;;;;;;;;5069988;28;20044;-78
2021/06/03 03:26:56;;;;;;;1.10;1.10;;;;;;;;;;5070196;28;20048;-78
2021/06/03 03:29:23;;;;;;;14.10;1.95;;;;;;;;;;5081605;28;20040;-78
2021/06/03 03:31:50;;;;;;;1.63;1.30;;;;;;;;;;5070324;28;20082;-78
2021/06/03 03:34:17;;;;;;;1.50;1.48;;;;;;;;;;5069361;28;20067;-78
2021/06/03 03:36:45;;;;;;;1.30;1.30;;;;;;;;;;5051814;28;20040;-78
2021/06/03 03:39:12;;;;;;;1.20;1.20;;;;;;;;;;5042488;28;20390;-78
2021/06/03 03:41:40;;;;;;;3.22;1.20;;;;;;;;;;5065961;28;20114;-78
2021/06/03 03:44:07;;;;;;;1.55;1.40;;;;;;;;;;5071275;28;20051;-78
2021/06/03 03:46:34;;;;;;;1.30;1.30;;;;;;;;;;5066706;28;20044;-78
2021/06/03 03:49:01;;;;;;;1.20;1.20;;;;;;;;;;5067743;28;20082;-78
2021/06/03 03:51:28;;;;;;;1.20;1.20;;;;;;;;;;5068857;28;20045;-78
2021/06/03 03:53:55;;;;;;;1.60;1.20;;;;;;;;;;5068731;28;20048;-78
2021/06/03 03:56:22;;;;;;;2.80;1.60;;;;;;;;;;5069487;28;20070;-78
2021/06/03 03:58:49;;;;;;;2.38;1.70;;;;;;;;;;5068387;28;20749;-78
2021/06/03 04:01:16;;;;;;;1.20;1.20;;;;;;;;;;5069320;28;20025;-78
2021/06/03 04:03:44;;;;;;;1.42;1.33;;;;;;;;;;5062807;28;20045;-78
2021/06/03 04:06:10;;;;;;;3.88;1.50;;;;;;;;;;5069198;28;20101;-78
2021/06/03 04:08:37;;;;;;;1.75;1.27;;;;;;;;;;5070138;28;20045;-78
2021/06/03 04:11:04;;;;;;;2.33;1.50;;;;;;;;;;5068258;28;20056;-78
2021/06/03 04:13:31;;;;;;;1.33;1.33;;;;;;;;;;5067502;28;20064;-78
2021/06/03 04:15:58;;;;;;;1.55;1.20;;;;;;;;;;5051617;28;20404;-78
2021/06/03 04:18:24;;;;;;;2.97;1.40;;;;;;;;;;5078327;28;20052;-78
2021/06/03 04:20:51;;;;;;;1.30;1.23;;;;;;;;;;5067965;28;20098;-78
2021/06/03 04:23:18;;;;;;;1.25;1.25;;;;;;;;;;5051165;28;20382;-78
2021/06/03 04:25:45;;;;;;;1.40;1.40;;;;;;;;;;5070664;28;20032;-78
2021/06/03 04:28:12;;;;;;;1.38;1.20;;;;;;;;;;5068049;28;20028;-78
2021/06/03 04:30:41;;;;;;;1.30;1.30;;;;;;;;;;5067134;28;20065;-78
2021/06/03 04:33:09;;;;;;;1.58;1.58;;;;;;;;;;5068256;28;20048;-78
2021/06/03 04:35:36;;;;;;;2.33;1.80;;;;;;;;;;5065576;28;20045;-78
2021/06/03 04:38:03;;;;;;;3.40;1.63;;;;;;;;;;5064232;28;20053;-78
2021/06/03 04:40:30;;;;;;;2.40;1.88;;;;;;;;;;5067237;28;20412;-78
2021/06/03 04:42:58;;;;;;;1.42;1.33;;;;;;;;;;5052098;28;20045;-78
2021/06/03 04:45:25;;;;;;;1.80;1.80;;;;;;;;;;5066158;28;20040;-78
2021/06/03 04:47:52;;;;;;;4.43;1.52;;;;;;;;;;5065021;28;20035;-78
2021/06/03 04:50:24;;;;;;;2.23;2.13;;;;;;;;;;5066845;28;20048;-78
2021/06/03 04:52:52;;;;;;;2.50;1.40;;;;;;;;;;5059434;28;20359;-78
2021/06/03 04:55:20;;;;;;;1.70;1.60;;;;;;;;;;5093517;28;20048;-78
2021/06/03 04:57:47;;;;;;;1.73;1.63;;;;;;;;;;5069080;28;20045;-78
2021/06/03 05:00:14;;;;;;;1.50;1.40;;;;;;;;;;5067081;28;20313;-78
2021/06/03 05:02:41;;;;;;;1.75;1.65;;;;;;;;;;5086016;28;20404;-78
2021/06/03 05:05:09;;;;;;;2.03;1.92;;;;;;;;;;5065552;28;20105;-78
2021/06/03 05:07:36;;;;;;;3.20;1.83;;;;;;;;;;5069260;28;20036;-78
2021/06/03 05:10:03;;;;;;;1.60;1.30;;;;;;;;;;5068869;28;20043;-78
2021/06/03 05:12:30;;;;;;;1.23;1.23;;;;;;;;;;5065562;28;20086;-78
2021/06/03 05:14:57;;;;;;;3.15;1.30;;;;;;;;;;5067044;28;20093;-78
2021/06/03 05:17:23;;;;;;;1.48;1.38;;;;;;;;;;5042243;28;20355;-78
2021/06/03 05:19:51;;;;;;;4.13;1.30;;;;;;;;;;5065622;28;20123;-78
2021/06/03 05:22:17;;;;;;;1.63;1.10;;;;;;;;;;5066359;28;20052;-78
2021/06/03 05:24:44;;;;;;;1.20;1.20;;;;;;;;;;5066654;28;20040;-78
2021/06/03 05:27:11;;;;;;;1.20;1.20;;;;;;;;;;5070297;28;20040;-78
2021/06/03 05:29:37;;;;;;;1.75;1.65;;;;;;;;;;5072136;28;20044;-78
2021/06/03 05:32:04;;;;;;;1.52;1.10;;;;;;;;;;5070830;28;20052;-80
2021/06/03 05:34:31;;;;;;;1.77;1.60;;;;;;;;;;5066458;28;20128;-80
2021/06/03 05:36:58;;;;;;;1.92;1.10;;;;;;;;;;5071536;28;20044;-80
2021/06/03 05:39:25;;;;;;;1.95;1.05;;;;;;;;;;5071938;28;20040;-80
2021/06/03 05:41:52;;;;;;;1.25;1.20;;;;;;;;;;5073231;28;20037;-80
2021/06/03 05:44:19;;;;;;;1.10;1.10;;;;;;;;;;5072399;28;20040;-80
2021/06/03 05:46:45;;;;;;;1.33;1.33;;;;;;;;;;5055589;28;20102;-80
2021/06/03 05:49:12;;;;;;;2.25;1.33;;;;;;;;;;5071767;28;20535;-80
2021/06/03 05:51:40;;;;;;;1.10;1.10;;;;;;;;;;5072733;28;20501;-80
2021/06/03 05:54:07;;;;;;;3.08;1.27;;;;;;;;;;5058826;28;20418;-80
2021/06/03 05:56:34;;;;;;;1.20;1.20;;;;;;;;;;5063804;28;20028;-79
2021/06/03 05:59:01;;;;;;;1.33;1.23;;;;;;;;;;5056847;28;21233;-79
2021/06/03 06:01:28;;;;;;;6.03;1.60;;;;;;;;;;5071822;28;20066;-79
2021/06/03 06:06:29;;;;;;;2.03;1.30;;;;;;;;;;5072041;28;20434;-79
2021/06/03 06:08:57;;;;;;;1.30;1.30;;;;;;;;;;5071495;28;20024;-79
2021/06/03 06:11:25;;;;;;;2.35;1.40;;;;;;;;;;5069931;28;20051;-79
2021/06/03 06:13:52;;;;;;;3.13;1.23;;;;;;;;;;5069949;28;20067;-79
2021/06/03 06:16:19;;;;;;;5.55;1.40;;;;;;;;;;5069608;28;20044;-79
2021/06/03 06:18:46;;;;;;;3.35;1.45;;;;;;;;;;5065652;28;20676;-79
2021/06/03 06:21:17;;;;;;;2.75;1.25;;;;;;;;;;5069509;28;20094;-79
2021/06/03 06:23:45;;;;;;;1.20;1.20;;;;;;;;;;5070715;28;20036;-79
2021/06/03 06:26:12;;;;;;;1.52;1.40;;;;;;;;;;5104839;27;20044;-79
2021/06/03 06:28:39;;;;;;;1.00;1.00;;;;;;;;;;5054395;28;20052;-79
2021/06/03 06:31:07;;;;;;;1.48;1.38;;;;;;;;;;5071775;28;20049;-79
2021/06/03 06:33:34;;;;;;;1.20;1.10;;;;;;;;;;5072257;28;20036;-79
2021/06/03 06:36:02;;;;;;;1.85;1.40;;;;;;;;;;5070792;28;20086;-79
2021/06/03 06:38:29;;;;;;;2.22;1.10;;;;;;;;;;5071503;28;20058;-79
2021/06/03 06:40:56;;;;;;;2.38;0.90;;;;;;;;;;5071241;28;20051;-79
2021/06/03 06:43:22;;;;;;;2.55;1.05;;;;;;;;;;5070931;28;20097;-79
2021/06/03 06:45:49;;;;;;;2.17;1.38;;;;;;;;;;5071750;28;20041;-79
2021/06/03 06:48:20;;;;;;;0.90;0.90;;;;;;;;;;5068656;28;20044;-79
2021/06/03 06:50:48;;;;;;;0.80;0.80;;;;;;;;;;5062847;28;20151;-79
2021/06/03 06:53:16;;;;;;;0.90;0.90;;;;;;;;;;5068530;28;20103;-79
2021/06/03 06:55:44;;;;;;;3.80;0.90;;;;;;;;;;5103184;28;20044;-79
2021/06/03 06:58:11;;;;;;;0.80;0.80;;;;;;;;;;5072131;28;20044;-79
2021/06/03 07:00:38;;;;;;;0.80;0.80;;;;;;;;;;5069148;28;20097;-79
2021/06/03 07:03:10;;;;;;;1.77;0.85;;;;;;;;;;5072090;28;20043;-79
2021/06/03 07:05:37;;;;;;;0.90;0.90;;;;;;;;;;5069046;28;20481;-80
2021/06/03 07:08:05;;;;;;;3.00;0.90;;;;;;;;;;5072522;28;20033;-80
2021/06/03 07:10:32;;;;;;;1.50;0.88;;;;;;;;;;5091107;28;20032;-80
2021/06/03 07:12:59;;;;;;;2.25;0.90;;;;;;;;;;5066132;28;20040;-80
2021/06/03 07:15:26;;;;;;;2.47;1.00;;;;;;;;;;5069348;28;20135;-80
2021/06/03 07:17:53;;;;;;;1.50;0.95;;;;;;;;;;5070840;28;20645;-80
2021/06/03 07:20:22;;;;;;;0.90;0.90;;;;;;;;;;5068900;28;20444;-80
2021/06/03 07:22:51;;;;;;;2.08;0.85;;;;;;;;;;5065776;28;20032;-80
2021/06/03 07:25:20;;;;;;;0.80;0.80;;;;;;;;;;5067779;28;20417;-80
2021/06/03 07:27:48;;;;;;;1.58;0.80;;;;;;;;;;5067886;28;20033;-80
2021/06/03 07:30:16;;;;;;;0.70;0.70;;;;;;;;;;5071423;28;20036;-80
2021/06/03 07:32:43;;;;;;;0.95;0.80;;;;;;;;;;5067186;28;20090;-80
2021/06/03 07:35:13;;;;;;;1.58;0.90;;;;;;;;;;5070501;28;20428;-80
2021/06/03 07:37:41;;;;;;;0.85;0.85;;;;;;;;;;5100281;28;20051;-80
2021/06/03 07:40:09;;;;;;;2.28;0.88;;;;;;;;;;5055750;28;20037;-80
2021/06/03 07:42:36;;;;;;;1.27;0.80;;;;;;;;;;5068760;28;20037;-80
2021/06/03 07:45:04;;;;;;;3.80;0.80;;;;;;;;;;5070745;28;20032;-80
2021/06/03 07:47:31;;;;;;;0.80;0.80;;;;;;;;;;5070915;28;20090;-80
2021/06/03 07:49:58;;;;;;;0.70;0.70;;;;;;;;;;5067860;28;20040;-80
2021/06/03 07:52:25;;;;;;;0.82;0.80;;;;;;;;;;5062189;28;20105;-80
2021/06/03 07:54:52;;;;;;;0.80;0.80;;;;;;;;;;5058591;28;20056;-80
2021/06/03 07:57:19;;;;;;;0.80;0.80;;;;;;;;;;5064769;28;20102;-80
2021/06/03 07:59:46;;;;;;;0.90;0.80;;;;;;;;;;5070040;28;20044;-80
2021/06/03 08:02:12;;;;;;;0.77;0.77;;;;;;;;;;5063871;28;20486;-80
2021/06/03 08:04:39;;;;;;;0.68;0.68;;;;;;;;;;5062774;28;20040;-80
2021/06/03 08:07:06;;;;;;;1.38;0.60;;;;;;;;;;5069652;28;20044;-80
2021/06/03 08:09:33;;;;;;;1.95;0.70;;;;;;;;;;5068455;28;20037;-80
2021/06/03 08:12:00;;;;;;;2.80;0.70;;;;;;;;;;5068505;28;20119;-80
2021/06/03 08:14:27;;;;;;;0.60;0.60;;;;;;;;;;5070246;28;20098;-80
2021/06/03 08:16:54;;;;;;;0.60;0.60;;;;;;;;;;5068410;28;20102;-80
2021/06/03 08:19:21;;;;;;;0.93;0.93;;;;;;;;;;5069999;28;20056;-80
2021/06/03 08:21:47;;;;;;;0.70;0.70;;;;;;;;;;5098852;28;20581;-80
2021/06/03 08:24:14;;;;;;;2.05;0.60;;;;;;;;;;5064266;28;20037;-80
2021/06/03 08:26:41;;;;;;;0.60;0.60;;;;;;;;;;5069363;28;20067;-80
2021/06/03 08:29:08;;;;;;;1.73;0.60;;;;;;;;;;5068395;28;20435;-80
2021/06/03 08:31:34;;;;;;;0.98;0.70;;;;;;;;;;5055235;28;20041;-80
2021/06/03 08:34:03;;;;;;;0.70;0.70;;;;;;;;;;5065282;28;20130;-80
2021/06/03 08:36:30;;;;;;;0.57;0.57;;;;;;;;;;5062084;28;20044;-80
2021/06/03 08:38:57;;;;;;;1.48;0.70;;;;;;;;;;5065020;28;20401;-80
2021/06/03 08:41:24;;;;;;;0.60;0.60;;;;;;;;;;5092872;28;20037;-80
2021/06/03 08:43:51;;;;;;;0.60;0.60;;;;;;;;;;5070370;28;20040;-80
2021/06/03 08:46:18;;;;;;;1.17;0.70;;;;;;;;;;5067999;28;20128;-80
2021/06/03 08:48:46;;;;;;;1.02;0.68;;;;;;;;;;5068698;28;20039;-80
2021/06/03 08:51:13;;;;;;;2.80;0.60;;;;;;;;;;5068598;28;20355;-80
2021/06/03 08:53:40;;;;;;;2.47;0.70;;;;;;;;;;5066707;28;20045;-80
2021/06/03 08:56:19;;;;;;;1.45;0.60;;;;;;;;;;5069967;28;20048;-80
2021/06/03 08:58:51;;;;;;;0.73;0.60;;;;;;;;;;5068412;28;20044;-80
2021/06/03 09:01:18;;;;;;;2.30;0.50;;;;;;;;;;5070217;28;20700;-81
2021/06/03 09:03:47;;;;;;;1.25;0.50;;;;;;;;;;5106179;28;20072;-81
2021/06/03 09:06:15;;;;;;;9.43;0.65;;;;;;;;;;5053981;28;20045;-81
2021/06/03 09:08:47;;;;;;;0.50;0.50;;;;;;;;;;5069482;28;20053;-81
2021/06/03 09:11:15;;;;;;;1.55;0.50;;;;;;;;;;5071045;28;20074;-81
2021/06/03 09:13:44;;;;;;;1.20;0.50;;;;;;;;;;5072792;28;20063;-81
2021/06/03 09:16:13;;;;;;;0.50;0.50;;;;;;;;;;5055808;28;20045;-81
2021/06/03 09:18:51;;;;;;;1.05;0.43;;;;;;;;;;5071514;28;20052;-81
2021/06/03 09:21:22;;;;;;;0.50;0.50;;;;;;;;;;5064973;28;20135;-81
2021/06/03 09:23:59;;;;;;;0.50;0.50;;;;;;;;;;5064979;28;20037;-81
2021/06/03 09:26:31;;;;;;;2.25;0.50;;;;;;;;;;5068850;28;20336;-81
2021/06/03 09:29:00;;;;;;;0.50;0.50;;;;;;;;;;5057794;28;20037;-81
2021/06/03 09:31:29;;;;;;;3.05;0.50;;;;;;;;;;5073588;28;20101;-81
2021/06/03 09:34:22;;;;;;;1.83;0.50;;;;;;;;;;5072957;28;20071;-81
2021/06/03 09:36:49;;;;;;;;;;;;;;;;;;5068479;28;20059;-81
2021/06/03 09:39:16;;;;;;;1.50;0.52;;;;;;;;;;5070940;28;20393;-81
2021/06/03 09:41:47;;;;;;;0.55;0.47;;;;;;;;;;5070970;28;20071;-81
2021/06/03 09:44:19;;;;;;;0.40;0.40;;;;;;;;;;5056432;28;20045;-81
2021/06/03 09:46:50;;;;;;;0.50;0.50;;;;;;;;;;5095658;28;20047;-81
2021/06/03 09:49:22;;;;;;;0.40;0.40;;;;;;;;;;5088453;28;20025;-81
2021/06/03 09:51:50;;;;;;;1.27;0.40;;;;;;;;;;5070845;28;20044;-81
2021/06/03 09:54:20;;;;;;;0.73;0.30;;;;;;;;;;5071021;28;20512;-81
2021/06/03 09:56:50;;;;;;;3.60;0.40;;;;;;;;;;5099863;28;20131;-81
2021/06/03 09:59:19;;;;;;;0.70;0.40;;;;;;;;;;5072115;28;20383;-81
2021/06/03 10:01:54;;;;;;;3.20;0.40;;;;;;;;;;5072641;28;20041;-81
2021/06/03 10:04:25;;;;;;;0.40;0.40;;;;;;;;;;5055945;28;20371;-81
2021/06/03 10:06:58;;;;;;;0.30;0.30;;;;;;;;;;5070205;28;20086;-81
2021/06/03 10:09:42;;;;;;;1.60;0.40;;;;;;;;;;5064318;28;20054;-81
2021/06/03 10:12:25;;;;;;;1.85;0.40;;;;;;;;;;5071632;28;20041;-81
2021/06/03 10:14:59;;;;;;;0.40;0.40;;;;;;;;;;5070763;28;21068;-81
2021/06/03 10:17:33;;;;;;;1.60;0.40;;;;;;;;;;5053966;28;20057;-81
2021/06/03 10:20:04;;;;;;;0.40;0.40;;;;;;;;;;5071892;28;20580;-81
2021/06/03 10:22:32;;;;;;;0.40;0.40;;;;;;;;;;5068903;28;20052;-81
2021/06/03 10:25:09;;;;;;;0.65;0.40;;;;;;;;;;5072040;28;20045;-81
2021/06/03 10:27:42;;;;;;;0.50;0.50;;;;;;;;;;5068182;28;20434;-81
2021/06/03 10:30:10;;;;;;;0.40;0.40;;;;;;;;;;5093093;28;20041;-81
2021/06/03 10:32:37;;;;;;;0.35;0.35;;;;;;;;;;5072086;28;20045;-81
2021/06/03 10:35:06;;;;;;;0.40;0.40;;;;;;;;;;5068101;28;20537;-81
2021/06/03 10:37:33;;;;;;;1.42;0.40;;;;;;;;;;5070290;28;20526;-81
2021/06/03 10:40:01;;;;;;;0.40;0.40;;;;;;;;;;5071110;28;20053;-81
2021/06/03 10:42:28;;;;;;;1.52;0.70;;;;;;;;;;5063854;28;20028;-81
2021/06/03 10:44:54;;;;;;;0.40;0.40;;;;;;;;;;5071670;28;20040;-81
2021/06/03 10:47:21;;;;;;;0.75;0.40;;;;;;;;;;5067299;28;20093;-81
2021/06/03 10:49:50;;;;;;;0.63;0.40;;;;;;;;;;5071327;28;20448;-81
2021/06/03 10:52:17;;;;;;;0.60;0.50;;;;;;;;;;5059244;28;20463;-81
2021/06/03 10:54:45;;;;;;;1.40;0.40;;;;;;;;;;5060574;28;20036;-81
2021/06/03 10:57:13;;;;;;;2.45;0.30;;;;;;;;;;5062937;28;20102;-81
2021/06/03 10:59:41;;;;;;;0.63;0.30;;;;;;;;;;5060159;28;20513;-81
2021/06/03 11:02:08;;;;;;;0.60;0.40;;;;;;;;;;5061000;28;20044;-81
2021/06/03 11:04:36;;;;;;;1.05;0.40;;;;;;;;;;5064063;28;20706;-81
2021/06/03 11:07:05;;;;;;;0.40;0.40;;;;;;;;;;5059235;28;20052;-81
2021/06/03 11:09:44;;;;;;;0.40;0.40;;;;;;;;;;5058508;28;20033;-81
2021/06/03 11:12:16;;;;;;;0.30;0.30;;;;;;;;;;5070730;28;20048;-81
2021/06/03 11:15:02;;;;;;;0.53;0.40;;;;;;;;;;5082023;28;20040;-81
2021/06/03 11:17:47;;;;;;;1.00;0.28;;;;;;;;;;5052380;28;20091;-81
2021/06/03 11:20:14;;;;;;;1.35;0.40;;;;;;;;;;5068754;28;20098;-81
2021/06/03 11:22:41;;;;;;;1.65;0.30;;;;;;;;;;5064622;28;20044;-81
2021/06/03 11:25:08;;;;;;;0.77;0.30;;;;;;;;;;5084718;28;20044;-81
2021/06/03 11:27:37;;;;;;;0.30;0.30;;;;;;;;;;5065880;28;20106;-81
2021/06/03 11:30:06;;;;;;;0.40;0.40;;;;;;;;;;5072855;28;20056;-81
2021/06/03 11:32:34;;;;;;;0.40;0.40;;;;;;;;;;5074976;28;20131;-81
2021/06/03 11:35:04;;;;;;;0.38;0.38;;;;;;;;;;5071797;28;20064;-81
2021/06/03 11:37:41;;;;;;;0.40;0.40;;;;;;;;;;5072479;28;20094;-80
2021/06/03 11:40:08;;;;;;;0.57;0.40;;;;;;;;;;5089092;28;20044;-81
2021/06/03 11:42:46;;;;;;;0.30;0.30;;;;;;;;;;5079346;28;20041;-81
2021/06/03 11:45:22;;;;;;;1.15;0.30;;;;;;;;;;5079262;28;20041;-81
2021/06/03 11:47:52;;;;;;;0.30;0.30;;;;;;;;;;5077374;28;20040;-81
2021/06/03 11:50:19;;;;;;;1.60;0.52;;;;;;;;;;5070455;28;20100;-81
2021/06/03 11:52:52;;;;;;;0.43;0.30;;;;;;;;;;5077579;28;20035;-81
2021/06/03 11:55:33;;;;;;;0.30;0.30;;;;;;;;;;5073003;28;20037;-81
2021/06/03 11:58:11;;;;;;;2.83;0.40;;;;;;;;;;5077257;28;20039;-81
2021/06/03 12:00:39;;;;;;;1.00;0.30;;;;;;;;;;5070794;28;20051;-80
2021/06/03 12:03:20;;;;;;;0.65;0.30;;;;;;;;;;5086285;28;20068;-80
2021/06/03 12:05:47;;;;;;;0.60;0.30;;;;;;;;;;5067565;28;20486;-80
2021/06/03 12:08:34;;;;;;;0.30;0.30;;;;;;;;;;5074779;28;20469;-80
2021/06/03 12:11:01;;;;;;;0.30;0.30;;;;;;;;;;5088094;28;20037;-80
2021/06/03 12:13:28;;;;;;;1.60;0.35;;;;;;;;;;5095040;28;20108;-80
2021/06/03 12:15:55;;;;;;;1.95;0.30;;;;;;;;;;5076616;28;20056;-80
2021/06/03 12:18:22;;;;;;;0.30;0.30;;;;;;;;;;5064911;28;20080;-80
2021/06/03 12:20:49;;;;;;;0.30;0.30;;;;;;;;;;5072811;28;20036;-80
2021/06/03 12:23:16;;;;;;;0.40;0.40;;;;;;;;;;5075752;28;20060;-80
2021/06/03 12:25:43;;;;;;;0.85;0.30;;;;;;;;;;5074907;28;20033;-80
2021/06/03 12:28:11;;;;;;;0.30;0.30;;;;;;;;;;5069167;28;20047;-80
2021/06/03 12:30:39;;;;;;;1.20;0.40;;;;;;;;;;5067735;28;20536;-80
2021/06/03 12:33:06;;;;;;;0.30;0.30;;;;;;;;;;5070105;28;20377;-80
2021/06/03 12:35:50;;;;;;;2.20;0.38;;;;;;;;;;5069306;28;20381;-80
2021/06/03 12:38:29;;;;;;;1.42;0.40;;;;;;;;;;5052578;28;20055;-80
2021/06/03 12:41:07;;;;;;;0.30;0.30;;;;;;;;;;5068754;28;20049;-80
2021/06/03 12:43:44;;;;;;;0.30;0.30;;;;;;;;;;5091995;28;20044;-80
2021/06/03 12:46:11;;;;;;;0.30;0.30;;;;;;;;;;5069411;28;20033;-77
2021/06/03 12:48:38;;;;;;;0.28;0.28;;;;;;;;;;5063520;28;20037;-77
2021/06/03 12:51:09;;;;;;;1.05;0.38;;;;;;;;;;5070565;28;20052;-77
2021/06/03 12:53:36;;;;;;;1.45;0.35;;;;;;;;;;5056993;28;20382;-77
2021/06/03 12:56:13;;;;;;;0.77;0.30;;;;;;;;;;5066495;28;20048;-77
2021/06/03 12:58:40;;;;;;;3.08;0.70;;;;;;;;;;5068269;28;20048;-77
2021/06/03 13:01:07;;;;;;;0.30;0.30;;;;;;;;;;5098112;28;20051;-77
2021/06/03 13:03:34;;;;;;;0.30;0.30;;;;;;;;;;5067399;28;20025;-77
2021/06/03 13:06:05;;;;;;;0.30;0.30;;;;;;;;;;5055264;28;20033;-77
2021/06/03 13:08:41;;;;;;;1.83;0.30;;;;;;;;;;5064032;28;20508;-77
2021/06/03 13:11:08;;;;;;;1.17;0.28;;;;;;;;;;5060895;28;20634;-77
2021/06/03 13:13:34;;;;;;;0.30;0.30;;;;;;;;;;5046202;28;20037;-77
2021/06/03 13:16:01;;;;;;;0.38;0.30;;;;;;;;;;5042693;28;20047;-77
2021/06/03 13:18:28;;;;;;;0.30;0.30;;;;;;;;;;5068897;28;20067;-77
2021/06/03 13:20:57;;;;;;;0.20;0.20;;;;;;;;;;5067688;28;20486;-77
2021/06/03 13:23:24;;;;;;;1.55;0.30;;;;;;;;;;5066188;28;20033;-77
2021/06/03 13:25:52;;;;;;;0.20;0.20;;;;;;;;;;5073684;28;20056;-77
2021/06/03 13:28:20;;;;;;;1.60;0.65;;;;;;;;;;5067151;28;20036;-77
2021/06/03 13:30:49;;;;;;;0.38;0.30;;;;;;;;;;5066543;28;20482;-77
2021/06/03 13:33:19;;;;;;;0.30;0.30;;;;;;;;;;5067533;28;20059;-77
2021/06/03 13:35:52;;;;;;;0.38;0.30;;;;;;;;;;5067200;28;20040;-77
2021/06/03 13:38:20;;;;;;;0.30;0.30;;;;;;;;;;5067506;28;20139;-77
2021/06/03 13:40:50;;;;;;;0.30;0.30;;;;;;;;;;5067699;28;20477;-77
2021/06/03 13:43:33;;;;;;;0.30;0.30;;;;;;;;;;5068256;28;20135;-77
2021/06/03 13:46:07;;;;;;;2.83;0.30;;;;;;;;;;5089549;28;20513;-77
2021/06/03 13:48:39;;;;;;;0.30;0.30;;;;;;;;;;5064685;28;20486;-77
2021/06/03 13:51:12;;;;;;;1.77;0.30;;;;;;;;;;5071617;28;20436;-77
2021/06/03 13:53:43;;;;;;;1.02;0.30;;;;;;;;;;5072580;28;20406;-77
2021/06/03 13:56:13;;;;;;;0.28;0.28;;;;;;;;;;5071517;28;20037;-77
2021/06/03 13:58:40;;;;;;;1.38;0.30;;;;;;;;;;5055581;28;20041;-77
2021/06/03 14:01:25;;;;;;;0.50;0.30;;;;;;;;;;5068051;28;20059;-77
2021/06/03 14:04:01;;;;;;;1.05;0.40;;;;;;;;;;5070552;28;20032;-77
2021/06/03 14:06:42;;;;;;;1.23;0.30;;;;;;;;;;5083206;28;20375;-77
2021/06/03 14:09:22;;;;;;;0.65;0.30;;;;;;;;;;5068049;28;20032;-77
2021/06/03 14:15:02;;;;;;;2.65;0.40;;;;;;;;;;5032237;28;20551;-77
2021/06/03 14:17:32;;;;;;;1.55;0.30;;;;;;;;;;5049221;28;20055;-77
2021/06/03 14:20:00;;;;;;;0.40;0.40;;;;;;;;;;5047658;28;20053;-77
2021/06/03 14:22:31;;;;;;;0.32;0.32;;;;;;;;;;5047380;28;20082;-77
2021/06/03 14:24:58;;;;;;;0.40;0.40;;;;;;;;;;5031323;28;20548;-77
2021/06/03 14:27:26;;;;;;;0.40;0.30;;;;;;;;;;5041611;28;20538;-77
2021/06/03 14:29:58;;;;;;;0.35;0.35;;;;;;;;;;5040541;28;20044;-77
2021/06/03 14:32:29;;;;;;;4.22;0.70;;;;;;;;;;5039590;28;20049;-76
2021/06/03 14:35:16;;;;;;;0.52;0.30;;;;;;;;;;5032235;28;20718;-76
2021/06/03 14:37:50;;;;;;;0.40;0.40;;;;;;;;;;5047982;28;20609;-77
2021/06/03 14:40:27;;;;;;;0.40;0.40;;;;;;;;;;5047816;28;20049;-77
2021/06/03 14:43:03;;;;;;;0.40;0.40;;;;;;;;;;5033121;28;20060;-77
2021/06/03 14:45:31;;;;;;;0.40;0.40;;;;;;;;;;5057878;28;20095;-77
2021/06/03 14:47:58;;;;;;;0.40;0.40;;;;;;;;;;5033821;28;20206;-77
2021/06/03 14:50:30;;;;;;;0.40;0.40;;;;;;;;;;5047040;28;20041;-77
2021/06/03 14:52:58;;;;;;;3.85;0.77;;;;;;;;;;5063151;28;20040;-77
2021/06/03 14:55:26;;;;;;;0.73;0.40;;;;;;;;;;5055497;28;20028;-77
2021/06/03 14:57:54;;;;;;;0.30;0.30;;;;;;;;;;5068110;28;20037;-77
2021/06/03 15:00:22;;;;;;;0.68;0.30;;;;;;;;;;5069505;28;20033;-77